< Cyclone 199612 1996 Season Cyclone 199614 >
Cyclone 199613 (ETHEL)
General InformationTrack Information on Google MapsDetailed Wind InformationList of All Images || ResourceGoogle EarthGE AnimationAtom FeedGeoJSON
Detalied Best Track (Time Zone = UTC)
Year Month Day Hour Lat. Long. Pressure (hPa) Wind (kt) Class Image Chart
1996 3 8 06 -15.0 139.0 998 41 3 Image --
1996 3 8 12 -14.6 140.1 995 41 3 Image --
1996 3 8 18 -13.7 140.1 993 47 3 Image --
1996 3 9 00 -13.1 140.3 990 47 3 Image --
1996 3 9 06 -13.0 140.8 987 47 3 Image --
1996 3 9 12 -12.7 141.4 985 47 3 Image --
1996 3 9 18 -12.3 141.8 980 44 0 Image --
1996 3 10 00 -12.1 143.0 993 41 3 Image --
1996 3 10 06 -12.5 144.0 990 47 3 Image --
1996 3 10 12 -12.9 144.7 990 47 3 Image --
1996 3 10 18 -13.2 145.3 990 47 3 Image --
1996 3 11 00 -13.2 145.6 990 47 3 Image --
1996 3 11 06 -13.8 146.0 990 47 3 Image --
1996 3 11 12 -14.3 145.4 988 49 4 Image --
1996 3 11 18 -14.2 144.5 982 54 4 Image --
1996 3 12 00 -14.2 143.5 985 41 3 Image --
1996 3 12 06 -14.7 142.4 995 35 3 Image --
1996 3 12 12 -15.2 141.0 992 41 3 Image --
1996 3 12 18 -15.4 139.5 988 41 3 Image --
1996 3 13 00 -16.2 137.8 985 41 3 Image --
1996 3 13 06 -17.1 136.3 995 35 3 Image --
< Cyclone 199612 1996 Season Cyclone 199614 >

Help